sensor_id;sensor_type;location;lat;lon;timestamp;P1;durP1;ratioP1;P2;durP2;ratioP2
9749;SDS011;4914;43.218;27.908;2023-01-09T00:02:25;6.20;;;5.60;;
9749;SDS011;4914;43.218;27.908;2023-01-09T00:04:52;8.37;;;6.23;;
9749;SDS011;4914;43.218;27.908;2023-01-09T00:07:19;8.00;;;6.40;;
9749;SDS011;4914;43.218;27.908;2023-01-09T00:09:46;9.87;;;6.50;;
9749;SDS011;4914;43.218;27.908;2023-01-09T00:12:12;7.77;;;6.10;;
9749;SDS011;4914;43.218;27.908;2023-01-09T00:14:39;7.93;;;6.27;;
9749;SDS011;4914;43.218;27.908;2023-01-09T00:17:08;6.83;;;6.20;;
9749;SDS011;4914;43.218;27.908;2023-01-09T00:19:34;10.07;;;6.40;;
9749;SDS011;4914;43.218;27.908;2023-01-09T00:22:01;7.80;;;6.50;;
9749;SDS011;4914;43.218;27.908;2023-01-09T00:24:30;6.43;;;5.80;;
9749;SDS011;4914;43.218;27.908;2023-01-09T00:26:57;7.37;;;5.40;;
9749;SDS011;4914;43.218;27.908;2023-01-09T00:29:24;9.37;;;6.33;;
9749;SDS011;4914;43.218;27.908;2023-01-09T00:31:51;7.57;;;5.90;;
9749;SDS011;4914;43.218;27.908;2023-01-09T00:34:19;10.37;;;5.80;;
9749;SDS011;4914;43.218;27.908;2023-01-09T00:36:46;8.77;;;6.40;;
9749;SDS011;4914;43.218;27.908;2023-01-09T00:39:13;7.47;;;5.70;;
9749;SDS011;4914;43.218;27.908;2023-01-09T00:41:40;9.10;;;6.10;;
9749;SDS011;4914;43.218;27.908;2023-01-09T00:44:10;14.83;;;11.33;;
9749;SDS011;4914;43.218;27.908;2023-01-09T00:46:40;10.43;;;6.33;;
9749;SDS011;4914;43.218;27.908;2023-01-09T00:49:12;8.80;;;7.00;;
9749;SDS011;4914;43.218;27.908;2023-01-09T00:51:42;11.87;;;6.50;;
9749;SDS011;4914;43.218;27.908;2023-01-09T00:54:09;7.47;;;6.20;;
9749;SDS011;4914;43.218;27.908;2023-01-09T00:56:39;7.50;;;6.03;;
9749;SDS011;4914;43.218;27.908;2023-01-09T00:59:06;10.10;;;5.40;;
9749;SDS011;4914;43.218;27.908;2023-01-09T01:01:33;8.57;;;6.20;;
9749;SDS011;4914;43.218;27.908;2023-01-09T01:04:00;7.40;;;6.30;;
9749;SDS011;4914;43.218;27.908;2023-01-09T01:06:48;7.73;;;5.73;;
9749;SDS011;4914;43.218;27.908;2023-01-09T01:09:33;7.57;;;6.03;;
9749;SDS011;4914;43.218;27.908;2023-01-09T01:11:59;8.93;;;6.17;;
9749;SDS011;4914;43.218;27.908;2023-01-09T01:14:31;9.50;;;6.20;;
9749;SDS011;4914;43.218;27.908;2023-01-09T01:16:58;8.03;;;6.33;;
9749;SDS011;4914;43.218;27.908;2023-01-09T01:19:25;7.17;;;6.47;;
9749;SDS011;4914;43.218;27.908;2023-01-09T01:21:53;8.50;;;5.27;;
9749;SDS011;4914;43.218;27.908;2023-01-09T01:24:21;6.80;;;5.70;;
9749;SDS011;4914;43.218;27.908;2023-01-09T01:26:48;9.00;;;6.13;;
9749;SDS011;4914;43.218;27.908;2023-01-09T01:29:14;6.97;;;6.10;;
9749;SDS011;4914;43.218;27.908;2023-01-09T01:31:41;7.33;;;5.40;;
9749;SDS011;4914;43.218;27.908;2023-01-09T01:34:08;7.77;;;6.33;;
9749;SDS011;4914;43.218;27.908;2023-01-09T01:36:35;8.80;;;6.53;;
9749;SDS011;4914;43.218;27.908;2023-01-09T01:39:03;7.03;;;6.23;;
9749;SDS011;4914;43.218;27.908;2023-01-09T01:41:30;9.90;;;6.50;;
9749;SDS011;4914;43.218;27.908;2023-01-09T01:43:58;12.60;;;6.90;;
9749;SDS011;4914;43.218;27.908;2023-01-09T01:46:26;8.30;;;6.23;;
9749;SDS011;4914;43.218;27.908;2023-01-09T01:48:54;9.87;;;6.13;;
9749;SDS011;4914;43.218;27.908;2023-01-09T01:51:25;6.67;;;5.80;;
9749;SDS011;4914;43.218;27.908;2023-01-09T01:53:56;8.17;;;6.00;;
9749;SDS011;4914;43.218;27.908;2023-01-09T01:56:27;8.67;;;5.97;;
9749;SDS011;4914;43.218;27.908;2023-01-09T01:59:00;10.30;;;6.10;;
9749;SDS011;4914;43.218;27.908;2023-01-09T02:01:30;6.20;;;5.60;;
9749;SDS011;4914;43.218;27.908;2023-01-09T02:03:58;7.43;;;5.93;;
9749;SDS011;4914;43.218;27.908;2023-01-09T02:06:27;8.23;;;6.40;;
9749;SDS011;4914;43.218;27.908;2023-01-09T02:08:55;8.37;;;6.17;;
9749;SDS011;4914;43.218;27.908;2023-01-09T02:11:22;10.07;;;6.10;;
9749;SDS011;4914;43.218;27.908;2023-01-09T02:13:51;8.23;;;6.00;;
9749;SDS011;4914;43.218;27.908;2023-01-09T02:16:22;6.73;;;5.90;;
9749;SDS011;4914;43.218;27.908;2023-01-09T02:19:00;6.97;;;5.60;;
9749;SDS011;4914;43.218;27.908;2023-01-09T02:21:44;10.53;;;5.80;;
9749;SDS011;4914;43.218;27.908;2023-01-09T02:24:24;10.23;;;5.97;;
9749;SDS011;4914;43.218;27.908;2023-01-09T02:27:07;7.37;;;5.30;;
9749;SDS011;4914;43.218;27.908;2023-01-09T02:33:11;9.37;;;5.87;;
9749;SDS011;4914;43.218;27.908;2023-01-09T02:35:52;7.10;;;5.40;;
9749;SDS011;4914;43.218;27.908;2023-01-09T02:38:28;8.43;;;5.63;;
9749;SDS011;4914;43.218;27.908;2023-01-09T02:41:03;8.20;;;5.50;;
9749;SDS011;4914;43.218;27.908;2023-01-09T02:43:33;6.57;;;4.77;;
9749;SDS011;4914;43.218;27.908;2023-01-09T02:46:00;8.13;;;5.77;;
9749;SDS011;4914;43.218;27.908;2023-01-09T02:48:28;6.37;;;5.27;;
9749;SDS011;4914;43.218;27.908;2023-01-09T02:51:00;10.30;;;5.20;;
9749;SDS011;4914;43.218;27.908;2023-01-09T02:53:39;9.77;;;5.13;;
9749;SDS011;4914;43.218;27.908;2023-01-09T02:59:20;11.63;;;4.97;;
9749;SDS011;4914;43.218;27.908;2023-01-09T03:02:00;7.03;;;4.53;;
9749;SDS011;4914;43.218;27.908;2023-01-09T03:04:43;8.37;;;4.43;;
9749;SDS011;4914;43.218;27.908;2023-01-09T03:07:20;7.63;;;4.63;;
9749;SDS011;4914;43.218;27.908;2023-01-09T03:09:54;8.47;;;4.57;;
9749;SDS011;4914;43.218;27.908;2023-01-09T03:12:25;5.73;;;4.23;;
9749;SDS011;4914;43.218;27.908;2023-01-09T03:14:57;6.83;;;4.53;;
9749;SDS011;4914;43.218;27.908;2023-01-09T03:17:27;8.80;;;4.60;;
9749;SDS011;4914;43.218;27.908;2023-01-09T03:19:58;5.90;;;4.60;;
9749;SDS011;4914;43.218;27.908;2023-01-09T03:22:28;6.10;;;4.30;;
9749;SDS011;4914;43.218;27.908;2023-01-09T03:24:55;8.27;;;4.77;;
9749;SDS011;4914;43.218;27.908;2023-01-09T03:27:22;5.57;;;4.07;;
9749;SDS011;4914;43.218;27.908;2023-01-09T03:29:49;5.80;;;4.13;;
9749;SDS011;4914;43.218;27.908;2023-01-09T03:32:17;8.00;;;4.30;;
9749;SDS011;4914;43.218;27.908;2023-01-09T03:34:44;7.07;;;4.00;;
9749;SDS011;4914;43.218;27.908;2023-01-09T03:37:12;9.73;;;4.67;;
9749;SDS011;4914;43.218;27.908;2023-01-09T03:39:39;5.77;;;4.60;;
9749;SDS011;4914;43.218;27.908;2023-01-09T03:42:07;7.43;;;4.07;;
9749;SDS011;4914;43.218;27.908;2023-01-09T03:44:34;11.30;;;4.40;;
9749;SDS011;4914;43.218;27.908;2023-01-09T03:47:01;6.87;;;3.80;;
9749;SDS011;4914;43.218;27.908;2023-01-09T03:49:27;7.00;;;4.10;;
9749;SDS011;4914;43.218;27.908;2023-01-09T03:51:54;5.23;;;4.20;;
9749;SDS011;4914;43.218;27.908;2023-01-09T03:54:23;7.93;;;4.63;;
9749;SDS011;4914;43.218;27.908;2023-01-09T03:56:49;8.03;;;4.13;;
9749;SDS011;4914;43.218;27.908;2023-01-09T03:59:16;8.50;;;4.40;;
9749;SDS011;4914;43.218;27.908;2023-01-09T04:01:43;8.83;;;6.97;;
9749;SDS011;4914;43.218;27.908;2023-01-09T04:04:10;6.40;;;4.10;;
9749;SDS011;4914;43.218;27.908;2023-01-09T04:06:37;8.57;;;4.20;;
9749;SDS011;4914;43.218;27.908;2023-01-09T04:09:04;8.03;;;4.30;;
9749;SDS011;4914;43.218;27.908;2023-01-09T04:11:32;11.13;;;4.47;;
9749;SDS011;4914;43.218;27.908;2023-01-09T04:13:59;7.63;;;4.30;;
9749;SDS011;4914;43.218;27.908;2023-01-09T04:16:25;7.27;;;4.10;;
9749;SDS011;4914;43.218;27.908;2023-01-09T04:18:52;9.37;;;4.50;;
9749;SDS011;4914;43.218;27.908;2023-01-09T04:21:19;8.53;;;4.40;;
9749;SDS011;4914;43.218;27.908;2023-01-09T04:23:46;6.00;;;4.00;;
9749;SDS011;4914;43.218;27.908;2023-01-09T04:26:13;7.07;;;4.10;;
9749;SDS011;4914;43.218;27.908;2023-01-09T04:28:41;8.87;;;4.00;;
9749;SDS011;4914;43.218;27.908;2023-01-09T04:31:08;13.23;;;4.47;;
9749;SDS011;4914;43.218;27.908;2023-01-09T04:33:35;5.93;;;4.10;;
9749;SDS011;4914;43.218;27.908;2023-01-09T04:36:02;8.27;;;4.23;;
9749;SDS011;4914;43.218;27.908;2023-01-09T04:38:29;7.00;;;4.50;;
9749;SDS011;4914;43.218;27.908;2023-01-09T04:40:56;9.07;;;4.30;;
9749;SDS011;4914;43.218;27.908;2023-01-09T04:43:23;10.50;;;4.20;;
9749;SDS011;4914;43.218;27.908;2023-01-09T04:45:51;10.20;;;5.97;;
9749;SDS011;4914;43.218;27.908;2023-01-09T04:48:18;8.60;;;4.93;;
9749;SDS011;4914;43.218;27.908;2023-01-09T04:50:45;10.67;;;5.60;;
9749;SDS011;4914;43.218;27.908;2023-01-09T04:53:11;9.20;;;4.30;;
9749;SDS011;4914;43.218;27.908;2023-01-09T04:55:38;9.70;;;4.80;;
9749;SDS011;4914;43.218;27.908;2023-01-09T04:58:07;8.63;;;5.00;;
9749;SDS011;4914;43.218;27.908;2023-01-09T05:00:33;10.77;;;5.40;;
9749;SDS011;4914;43.218;27.908;2023-01-09T05:03:02;10.50;;;4.37;;
9749;SDS011;4914;43.218;27.908;2023-01-09T05:05:29;9.57;;;4.90;;
9749;SDS011;4914;43.218;27.908;2023-01-09T05:07:56;10.40;;;4.73;;
9749;SDS011;4914;43.218;27.908;2023-01-09T05:10:23;11.87;;;5.20;;
9749;SDS011;4914;43.218;27.908;2023-01-09T05:12:49;8.37;;;4.50;;
9749;SDS011;4914;43.218;27.908;2023-01-09T05:15:16;10.23;;;4.80;;
9749;SDS011;4914;43.218;27.908;2023-01-09T05:17:44;13.13;;;5.20;;
9749;SDS011;4914;43.218;27.908;2023-01-09T05:20:12;11.33;;;5.70;;
9749;SDS011;4914;43.218;27.908;2023-01-09T05:22:39;12.93;;;4.80;;
9749;SDS011;4914;43.218;27.908;2023-01-09T05:25:06;8.70;;;4.53;;
9749;SDS011;4914;43.218;27.908;2023-01-09T05:27:33;14.43;;;4.77;;
9749;SDS011;4914;43.218;27.908;2023-01-09T05:30:00;8.93;;;4.40;;
9749;SDS011;4914;43.218;27.908;2023-01-09T05:32:27;11.07;;;4.40;;
9749;SDS011;4914;43.218;27.908;2023-01-09T05:34:53;9.10;;;4.40;;
9749;SDS011;4914;43.218;27.908;2023-01-09T05:37:22;12.50;;;4.90;;
9749;SDS011;4914;43.218;27.908;2023-01-09T05:39:48;12.17;;;4.90;;
9749;SDS011;4914;43.218;27.908;2023-01-09T05:42:15;9.00;;;4.43;;
9749;SDS011;4914;43.218;27.908;2023-01-09T05:44:42;12.27;;;4.80;;
9749;SDS011;4914;43.218;27.908;2023-01-09T05:47:09;8.47;;;4.97;;
9749;SDS011;4914;43.218;27.908;2023-01-09T05:49:36;11.63;;;5.00;;
9749;SDS011;4914;43.218;27.908;2023-01-09T05:52:03;7.77;;;4.87;;
9749;SDS011;4914;43.218;27.908;2023-01-09T05:54:31;11.67;;;6.00;;
9749;SDS011;4914;43.218;27.908;2023-01-09T05:56:58;16.27;;;7.43;;
9749;SDS011;4914;43.218;27.908;2023-01-09T05:59:25;17.70;;;5.07;;
9749;SDS011;4914;43.218;27.908;2023-01-09T06:01:52;8.60;;;4.90;;
9749;SDS011;4914;43.218;27.908;2023-01-09T06:04:19;12.07;;;5.83;;
9749;SDS011;4914;43.218;27.908;2023-01-09T06:06:46;10.93;;;5.63;;
9749;SDS011;4914;43.218;27.908;2023-01-09T06:09:13;11.73;;;5.53;;
9749;SDS011;4914;43.218;27.908;2023-01-09T06:11:41;12.03;;;5.63;;
9749;SDS011;4914;43.218;27.908;2023-01-09T06:14:08;11.57;;;5.20;;
9749;SDS011;4914;43.218;27.908;2023-01-09T06:16:34;11.97;;;5.00;;
9749;SDS011;4914;43.218;27.908;2023-01-09T06:19:01;10.40;;;5.43;;
9749;SDS011;4914;43.218;27.908;2023-01-09T06:21:29;10.37;;;5.60;;
9749;SDS011;4914;43.218;27.908;2023-01-09T06:23:57;14.43;;;5.90;;
9749;SDS011;4914;43.218;27.908;2023-01-09T06:26:24;10.83;;;5.67;;
9749;SDS011;4914;43.218;27.908;2023-01-09T06:28:52;13.10;;;5.53;;
9749;SDS011;4914;43.218;27.908;2023-01-09T06:31:20;10.17;;;5.30;;
9749;SDS011;4914;43.218;27.908;2023-01-09T06:33:47;9.63;;;5.10;;
9749;SDS011;4914;43.218;27.908;2023-01-09T06:36:14;10.77;;;5.07;;
9749;SDS011;4914;43.218;27.908;2023-01-09T06:38:41;11.30;;;5.10;;
9749;SDS011;4914;43.218;27.908;2023-01-09T06:41:08;11.47;;;4.93;;
9749;SDS011;4914;43.218;27.908;2023-01-09T06:43:35;10.00;;;5.10;;
9749;SDS011;4914;43.218;27.908;2023-01-09T06:46:03;11.87;;;5.00;;
9749;SDS011;4914;43.218;27.908;2023-01-09T06:48:30;9.43;;;5.27;;
9749;SDS011;4914;43.218;27.908;2023-01-09T06:50:57;9.83;;;5.00;;
9749;SDS011;4914;43.218;27.908;2023-01-09T06:53:24;12.03;;;4.87;;
9749;SDS011;4914;43.218;27.908;2023-01-09T06:55:51;14.70;;;5.20;;
9749;SDS011;4914;43.218;27.908;2023-01-09T06:58:18;9.77;;;5.30;;
9749;SDS011;4914;43.218;27.908;2023-01-09T07:00:45;12.60;;;5.40;;
9749;SDS011;4914;43.218;27.908;2023-01-09T07:03:14;8.30;;;5.10;;
9749;SDS011;4914;43.218;27.908;2023-01-09T07:05:43;11.83;;;4.90;;
9749;SDS011;4914;43.218;27.908;2023-01-09T07:08:11;11.23;;;5.37;;
9749;SDS011;4914;43.218;27.908;2023-01-09T07:10:39;16.10;;;5.87;;
9749;SDS011;4914;43.218;27.908;2023-01-09T07:13:05;12.90;;;5.30;;
9749;SDS011;4914;43.218;27.908;2023-01-09T07:15:32;10.50;;;5.10;;
9749;SDS011;4914;43.218;27.908;2023-01-09T07:17:59;21.10;;;5.13;;
9749;SDS011;4914;43.218;27.908;2023-01-09T07:20:27;14.37;;;5.20;;
9749;SDS011;4914;43.218;27.908;2023-01-09T07:22:54;12.27;;;5.30;;
9749;SDS011;4914;43.218;27.908;2023-01-09T07:25:21;8.50;;;5.47;;
9749;SDS011;4914;43.218;27.908;2023-01-09T07:27:48;12.00;;;5.30;;
9749;SDS011;4914;43.218;27.908;2023-01-09T07:30:15;9.07;;;5.00;;
9749;SDS011;4914;43.218;27.908;2023-01-09T07:32:42;9.10;;;5.20;;
9749;SDS011;4914;43.218;27.908;2023-01-09T07:35:09;9.47;;;5.33;;
9749;SDS011;4914;43.218;27.908;2023-01-09T07:37:37;12.77;;;6.40;;
9749;SDS011;4914;43.218;27.908;2023-01-09T07:40:05;10.77;;;5.40;;
9749;SDS011;4914;43.218;27.908;2023-01-09T07:42:33;13.13;;;5.60;;
9749;SDS011;4914;43.218;27.908;2023-01-09T07:44:59;9.10;;;5.83;;
9749;SDS011;4914;43.218;27.908;2023-01-09T07:47:26;10.57;;;5.60;;
9749;SDS011;4914;43.218;27.908;2023-01-09T07:49:53;10.53;;;5.97;;
9749;SDS011;4914;43.218;27.908;2023-01-09T07:52:20;8.63;;;5.97;;
9749;SDS011;4914;43.218;27.908;2023-01-09T07:54:48;10.03;;;5.93;;
9749;SDS011;4914;43.218;27.908;2023-01-09T07:57:15;13.43;;;5.83;;
9749;SDS011;4914;43.218;27.908;2023-01-09T07:59:42;12.13;;;6.20;;
9749;SDS011;4914;43.218;27.908;2023-01-09T08:02:09;9.43;;;5.87;;
9749;SDS011;4914;43.218;27.908;2023-01-09T08:04:36;12.00;;;6.20;;
9749;SDS011;4914;43.218;27.908;2023-01-09T08:07:03;9.40;;;5.77;;
9749;SDS011;4914;43.218;27.908;2023-01-09T08:09:30;10.10;;;5.87;;
9749;SDS011;4914;43.218;27.908;2023-01-09T08:11:58;13.50;;;6.00;;
9749;SDS011;4914;43.218;27.908;2023-01-09T08:14:25;12.97;;;6.10;;
9749;SDS011;4914;43.218;27.908;2023-01-09T08:16:51;11.97;;;7.10;;
9749;SDS011;4914;43.218;27.908;2023-01-09T08:19:18;13.57;;;7.93;;
9749;SDS011;4914;43.218;27.908;2023-01-09T08:21:45;15.13;;;7.67;;
9749;SDS011;4914;43.218;27.908;2023-01-09T08:24:12;12.23;;;8.90;;
9749;SDS011;4914;43.218;27.908;2023-01-09T08:26:39;14.23;;;8.37;;
9749;SDS011;4914;43.218;27.908;2023-01-09T08:29:07;11.90;;;6.87;;
9749;SDS011;4914;43.218;27.908;2023-01-09T08:31:34;11.30;;;8.23;;
9749;SDS011;4914;43.218;27.908;2023-01-09T08:34:01;13.37;;;7.20;;
9749;SDS011;4914;43.218;27.908;2023-01-09T08:36:28;13.07;;;6.47;;
9749;SDS011;4914;43.218;27.908;2023-01-09T08:38:55;14.57;;;9.37;;
9749;SDS011;4914;43.218;27.908;2023-01-09T08:41:22;14.67;;;7.07;;
9749;SDS011;4914;43.218;27.908;2023-01-09T08:44:07;9.63;;;5.40;;
9749;SDS011;4914;43.218;27.908;2023-01-09T08:46:51;11.63;;;5.87;;
9749;SDS011;4914;43.218;27.908;2023-01-09T08:49:30;9.47;;;5.70;;
9749;SDS011;4914;43.218;27.908;2023-01-09T08:51:58;14.27;;;5.70;;
9749;SDS011;4914;43.218;27.908;2023-01-09T08:54:25;13.63;;;6.18;;
9749;SDS011;4914;43.218;27.908;2023-01-09T08:56:52;10.23;;;6.55;;
9749;SDS011;4914;43.218;27.908;2023-01-09T08:59:20;15.38;;;8.23;;
9749;SDS011;4914;43.218;27.908;2023-01-09T09:01:47;14.50;;;8.20;;
9749;SDS011;4914;43.218;27.908;2023-01-09T09:04:14;13.93;;;8.20;;
9749;SDS011;4914;43.218;27.908;2023-01-09T09:06:41;14.73;;;8.03;;
9749;SDS011;4914;43.218;27.908;2023-01-09T09:09:08;13.03;;;6.97;;
9749;SDS011;4914;43.218;27.908;2023-01-09T09:11:35;14.23;;;7.23;;
9749;SDS011;4914;43.218;27.908;2023-01-09T09:14:01;14.23;;;6.80;;
9749;SDS011;4914;43.218;27.908;2023-01-09T09:16:51;10.40;;;6.90;;
9749;SDS011;4914;43.218;27.908;2023-01-09T09:19:18;12.80;;;7.10;;
9749;SDS011;4914;43.218;27.908;2023-01-09T09:21:44;9.90;;;5.63;;
9749;SDS011;4914;43.218;27.908;2023-01-09T09:24:11;11.80;;;6.33;;
9749;SDS011;4914;43.218;27.908;2023-01-09T09:26:38;11.53;;;6.33;;
9749;SDS011;4914;43.218;27.908;2023-01-09T09:29:05;14.47;;;6.03;;
9749;SDS011;4914;43.218;27.908;2023-01-09T09:31:32;15.17;;;6.47;;
9749;SDS011;4914;43.218;27.908;2023-01-09T09:34:00;12.85;;;6.75;;
9749;SDS011;4914;43.218;27.908;2023-01-09T09:36:27;15.20;;;6.40;;
9749;SDS011;4914;43.218;27.908;2023-01-09T09:38:55;12.63;;;6.23;;
9749;SDS011;4914;43.218;27.908;2023-01-09T09:41:34;10.80;;;6.15;;
9749;SDS011;4914;43.218;27.908;2023-01-09T09:44:38;9.10;;;6.00;;
9749;SDS011;4914;43.218;27.908;2023-01-09T09:47:21;9.95;;;6.40;;
9749;SDS011;4914;43.218;27.908;2023-01-09T09:50:01;15.15;;;6.35;;
9749;SDS011;4914;43.218;27.908;2023-01-09T09:52:37;11.20;;;6.50;;
9749;SDS011;4914;43.218;27.908;2023-01-09T09:55:14;9.70;;;6.25;;
9749;SDS011;4914;43.218;27.908;2023-01-09T09:57:43;11.30;;;6.60;;
9749;SDS011;4914;43.218;27.908;2023-01-09T10:00:14;13.23;;;7.28;;
9749;SDS011;4914;43.218;27.908;2023-01-09T10:02:44;17.17;;;6.70;;
9749;SDS011;4914;43.218;27.908;2023-01-09T10:05:18;15.32;;;6.38;;
9749;SDS011;4914;43.218;27.908;2023-01-09T10:07:49;9.20;;;6.88;;
9749;SDS011;4914;43.218;27.908;2023-01-09T10:10:20;10.68;;;6.55;;
9749;SDS011;4914;43.218;27.908;2023-01-09T10:12:53;9.80;;;6.63;;
9749;SDS011;4914;43.218;27.908;2023-01-09T10:15:25;14.32;;;7.03;;
9749;SDS011;4914;43.218;27.908;2023-01-09T10:18:03;11.63;;;6.78;;
9749;SDS011;4914;43.218;27.908;2023-01-09T10:20:48;8.85;;;6.75;;
9749;SDS011;4914;43.218;27.908;2023-01-09T10:23:32;8.98;;;6.32;;
9749;SDS011;4914;43.218;27.908;2023-01-09T10:26:18;12.35;;;6.95;;
9749;SDS011;4914;43.218;27.908;2023-01-09T10:28:57;13.90;;;6.72;;
9749;SDS011;4914;43.218;27.908;2023-01-09T10:31:39;8.65;;;6.47;;
9749;SDS011;4914;43.218;27.908;2023-01-09T10:34:18;15.45;;;7.22;;
9749;SDS011;4914;43.218;27.908;2023-01-09T10:36:59;12.75;;;6.43;;
9749;SDS011;4914;43.218;27.908;2023-01-09T10:39:33;10.00;;;6.75;;
9749;SDS011;4914;43.218;27.908;2023-01-09T10:42:07;11.35;;;7.03;;
9749;SDS011;4914;43.218;27.908;2023-01-09T10:44:42;14.40;;;6.85;;
9749;SDS011;4914;43.218;27.908;2023-01-09T10:47:15;12.95;;;7.05;;
9749;SDS011;4914;43.218;27.908;2023-01-09T10:49:44;14.43;;;6.90;;
9749;SDS011;4914;43.218;27.908;2023-01-09T10:52:15;15.07;;;7.10;;
9749;SDS011;4914;43.218;27.908;2023-01-09T10:54:47;18.77;;;7.70;;
9749;SDS011;4914;43.218;27.908;2023-01-09T10:57:30;11.20;;;6.73;;
9749;SDS011;4914;43.218;27.908;2023-01-09T11:00:04;12.23;;;6.43;;
9749;SDS011;4914;43.218;27.908;2023-01-09T11:02:33;11.53;;;7.00;;
9749;SDS011;4914;43.218;27.908;2023-01-09T11:05:00;16.17;;;8.03;;
9749;SDS011;4914;43.218;27.908;2023-01-09T11:07:29;8.77;;;6.47;;
9749;SDS011;4914;43.218;27.908;2023-01-09T11:10:00;11.60;;;7.03;;
9749;SDS011;4914;43.218;27.908;2023-01-09T11:12:32;16.47;;;6.97;;
9749;SDS011;4914;43.218;27.908;2023-01-09T11:15:16;13.97;;;7.63;;
9749;SDS011;4914;43.218;27.908;2023-01-09T11:17:54;12.57;;;7.43;;
9749;SDS011;4914;43.218;27.908;2023-01-09T11:20:41;12.73;;;8.03;;
9749;SDS011;4914;43.218;27.908;2023-01-09T11:23:21;12.27;;;7.30;;
9749;SDS011;4914;43.218;27.908;2023-01-09T11:25:50;15.57;;;8.50;;
9749;SDS011;4914;43.218;27.908;2023-01-09T11:28:18;12.97;;;7.53;;
9749;SDS011;4914;43.218;27.908;2023-01-09T11:30:52;13.23;;;7.37;;
9749;SDS011;4914;43.218;27.908;2023-01-09T11:33:21;12.17;;;7.07;;
9749;SDS011;4914;43.218;27.908;2023-01-09T11:35:53;13.63;;;8.10;;
9749;SDS011;4914;43.218;27.908;2023-01-09T11:38:25;10.07;;;7.03;;
9749;SDS011;4914;43.218;27.908;2023-01-09T11:40:54;12.07;;;9.25;;
9749;SDS011;4914;43.218;27.908;2023-01-09T11:43:33;14.73;;;7.78;;
9749;SDS011;4914;43.218;27.908;2023-01-09T11:46:03;11.32;;;7.70;;
9749;SDS011;4914;43.218;27.908;2023-01-09T11:48:34;13.13;;;9.50;;
9749;SDS011;4914;43.218;27.908;2023-01-09T11:51:04;12.35;;;8.77;;
9749;SDS011;4914;43.218;27.908;2023-01-09T11:56:49;11.15;;;8.70;;
9749;SDS011;4914;43.218;27.908;2023-01-09T11:59:17;12.70;;;7.90;;
9749;SDS011;4914;43.218;27.908;2023-01-09T12:01:50;12.77;;;8.02;;
9749;SDS011;4914;43.218;27.908;2023-01-09T12:04:27;11.63;;;8.07;;
9749;SDS011;4914;43.218;27.908;2023-01-09T12:10:05;10.15;;;7.03;;
9749;SDS011;4914;43.218;27.908;2023-01-09T12:12:47;10.48;;;8.50;;
9749;SDS011;4914;43.218;27.908;2023-01-09T12:15:24;12.55;;;9.15;;
9749;SDS011;4914;43.218;27.908;2023-01-09T12:20:58;14.05;;;9.35;;
9749;SDS011;4914;43.218;27.908;2023-01-09T12:23:40;11.07;;;8.13;;
9749;SDS011;4914;43.218;27.908;2023-01-09T12:26:16;12.25;;;9.45;;
9749;SDS011;4914;43.218;27.908;2023-01-09T12:28:59;12.88;;;8.63;;
9749;SDS011;4914;43.218;27.908;2023-01-09T12:34:43;21.20;;;9.53;;
9749;SDS011;4914;43.218;27.908;2023-01-09T12:37:28;11.87;;;9.27;;
9749;SDS011;4914;43.218;27.908;2023-01-09T12:40:10;10.87;;;8.90;;
9749;SDS011;4914;43.218;27.908;2023-01-09T12:42:51;13.63;;;9.77;;
9749;SDS011;4914;43.218;27.908;2023-01-09T12:45:31;15.50;;;10.33;;
9749;SDS011;4914;43.218;27.908;2023-01-09T12:48:06;15.00;;;10.10;;
9749;SDS011;4914;43.218;27.908;2023-01-09T12:50:53;13.47;;;9.37;;
9749;SDS011;4914;43.218;27.908;2023-01-09T12:53:31;15.77;;;9.97;;
9749;SDS011;4914;43.218;27.908;2023-01-09T12:56:03;13.80;;;9.85;;
9749;SDS011;4914;43.218;27.908;2023-01-09T12:58:35;15.43;;;10.43;;
9749;SDS011;4914;43.218;27.908;2023-01-09T13:01:11;13.70;;;10.20;;
9749;SDS011;4914;43.218;27.908;2023-01-09T13:03:43;15.10;;;9.68;;
9749;SDS011;4914;43.218;27.908;2023-01-09T13:06:15;15.77;;;11.07;;
9749;SDS011;4914;43.218;27.908;2023-01-09T13:08:46;16.65;;;10.75;;
9749;SDS011;4914;43.218;27.908;2023-01-09T13:11:17;17.42;;;11.23;;
9749;SDS011;4914;43.218;27.908;2023-01-09T13:13:50;16.65;;;11.13;;
9749;SDS011;4914;43.218;27.908;2023-01-09T13:16:25;17.98;;;12.02;;
9749;SDS011;4914;43.218;27.908;2023-01-09T13:18:58;18.42;;;12.70;;
9749;SDS011;4914;43.218;27.908;2023-01-09T13:21:29;18.40;;;11.70;;
9749;SDS011;4914;43.218;27.908;2023-01-09T13:23:58;22.87;;;12.27;;
9749;SDS011;4914;43.218;27.908;2023-01-09T13:26:30;16.67;;;12.00;;
9749;SDS011;4914;43.218;27.908;2023-01-09T13:29:01;17.00;;;12.30;;
9749;SDS011;4914;43.218;27.908;2023-01-09T13:31:48;17.97;;;11.47;;
9749;SDS011;4914;43.218;27.908;2023-01-09T13:34:25;18.23;;;11.83;;
9749;SDS011;4914;43.218;27.908;2023-01-09T13:36:56;19.00;;;11.73;;
9749;SDS011;4914;43.218;27.908;2023-01-09T13:39:25;20.13;;;11.63;;
9749;SDS011;4914;43.218;27.908;2023-01-09T13:41:59;19.63;;;11.63;;
9749;SDS011;4914;43.218;27.908;2023-01-09T13:44:45;17.70;;;11.70;;
9749;SDS011;4914;43.218;27.908;2023-01-09T13:47:18;15.53;;;12.10;;
9749;SDS011;4914;43.218;27.908;2023-01-09T13:49:56;16.13;;;10.90;;
9749;SDS011;4914;43.218;27.908;2023-01-09T13:52:31;15.73;;;11.30;;
9749;SDS011;4914;43.218;27.908;2023-01-09T13:58:19;15.47;;;10.40;;
9749;SDS011;4914;43.218;27.908;2023-01-09T14:00:55;16.63;;;10.03;;
9749;SDS011;4914;43.218;27.908;2023-01-09T14:03:25;18.20;;;11.17;;
9749;SDS011;4914;43.218;27.908;2023-01-09T14:06:08;13.97;;;9.67;;
9749;SDS011;4914;43.218;27.908;2023-01-09T14:08:46;15.30;;;9.77;;
9749;SDS011;4914;43.218;27.908;2023-01-09T14:11:17;13.67;;;10.20;;
9749;SDS011;4914;43.218;27.908;2023-01-09T14:13:46;13.33;;;9.43;;
9749;SDS011;4914;43.218;27.908;2023-01-09T14:16:21;14.33;;;9.57;;
9749;SDS011;4914;43.218;27.908;2023-01-09T14:19:00;17.00;;;9.80;;
9749;SDS011;4914;43.218;27.908;2023-01-09T14:21:42;15.70;;;10.07;;
9749;SDS011;4914;43.218;27.908;2023-01-09T14:24:17;12.33;;;9.37;;
9749;SDS011;4914;43.218;27.908;2023-01-09T14:26:47;14.07;;;9.50;;
9749;SDS011;4914;43.218;27.908;2023-01-09T14:35:08;11.47;;;8.13;;
9749;SDS011;4914;43.218;27.908;2023-01-09T14:37:39;19.47;;;9.23;;
9749;SDS011;4914;43.218;27.908;2023-01-09T14:40:14;14.27;;;8.50;;
9749;SDS011;4914;43.218;27.908;2023-01-09T14:42:44;11.37;;;7.93;;
9749;SDS011;4914;43.218;27.908;2023-01-09T14:45:14;15.53;;;9.13;;
9749;SDS011;4914;43.218;27.908;2023-01-09T14:47:45;13.37;;;8.07;;
9749;SDS011;4914;43.218;27.908;2023-01-09T14:50:20;14.10;;;8.00;;
9749;SDS011;4914;43.218;27.908;2023-01-09T14:52:56;14.10;;;8.00;;
9749;SDS011;4914;43.218;27.908;2023-01-09T14:55:29;14.50;;;8.80;;
9749;SDS011;4914;43.218;27.908;2023-01-09T14:58:11;11.93;;;8.20;;
9749;SDS011;4914;43.218;27.908;2023-01-09T15:00:47;13.23;;;7.77;;
9749;SDS011;4914;43.218;27.908;2023-01-09T15:03:16;14.33;;;8.30;;
9749;SDS011;4914;43.218;27.908;2023-01-09T15:05:45;15.00;;;8.50;;
9749;SDS011;4914;43.218;27.908;2023-01-09T15:08:13;12.60;;;8.40;;
9749;SDS011;4914;43.218;27.908;2023-01-09T15:10:44;15.17;;;8.30;;
9749;SDS011;4914;43.218;27.908;2023-01-09T15:13:13;13.17;;;8.07;;
9749;SDS011;4914;43.218;27.908;2023-01-09T15:15:44;17.90;;;8.87;;
9749;SDS011;4914;43.218;27.908;2023-01-09T15:18:16;14.60;;;8.40;;
9749;SDS011;4914;43.218;27.908;2023-01-09T15:20:51;17.53;;;9.13;;
9749;SDS011;4914;43.218;27.908;2023-01-09T15:23:20;20.67;;;11.90;;
9749;SDS011;4914;43.218;27.908;2023-01-09T15:25:48;16.00;;;8.80;;
9749;SDS011;4914;43.218;27.908;2023-01-09T15:28:23;14.70;;;8.40;;
9749;SDS011;4914;43.218;27.908;2023-01-09T15:31:02;13.80;;;8.63;;
9749;SDS011;4914;43.218;27.908;2023-01-09T15:33:31;14.17;;;8.87;;
9749;SDS011;4914;43.218;27.908;2023-01-09T15:36:01;17.50;;;8.67;;
9749;SDS011;4914;43.218;27.908;2023-01-09T15:38:32;16.03;;;8.70;;
9749;SDS011;4914;43.218;27.908;2023-01-09T15:41:03;15.97;;;9.00;;